sensor_id;sensor_type;location;lat;lon;timestamp;P1;durP1;ratioP1;P2;durP2;ratioP2
8252;SDS011;61313;48.396;10.008;2023-01-16T00:01:06;3.00;;;1.70;;
8252;SDS011;61313;48.396;10.008;2023-01-16T00:03:32;7.97;;;2.00;;
8252;SDS011;61313;48.396;10.008;2023-01-16T00:05:57;5.53;;;2.10;;
8252;SDS011;61313;48.396;10.008;2023-01-16T00:08:23;4.37;;;1.67;;
8252;SDS011;61313;48.396;10.008;2023-01-16T00:10:48;3.33;;;1.70;;
8252;SDS011;61313;48.396;10.008;2023-01-16T00:13:14;4.27;;;1.70;;
8252;SDS011;61313;48.396;10.008;2023-01-16T00:15:46;4.87;;;1.70;;
8252;SDS011;61313;48.396;10.008;2023-01-16T00:18:13;8.03;;;1.77;;
8252;SDS011;61313;48.396;10.008;2023-01-16T00:20:38;5.53;;;2.67;;
8252;SDS011;61313;48.396;10.008;2023-01-16T00:23:04;2.77;;;1.60;;
8252;SDS011;61313;48.396;10.008;2023-01-16T00:25:29;1.67;;;1.33;;
8252;SDS011;61313;48.396;10.008;2023-01-16T00:27:54;3.47;;;1.80;;
8252;SDS011;61313;48.396;10.008;2023-01-16T00:30:20;3.30;;;1.53;;
8252;SDS011;61313;48.396;10.008;2023-01-16T00:32:46;2.67;;;1.40;;
8252;SDS011;61313;48.396;10.008;2023-01-16T00:35:11;6.20;;;1.63;;
8252;SDS011;61313;48.396;10.008;2023-01-16T00:37:37;4.33;;;1.53;;
8252;SDS011;61313;48.396;10.008;2023-01-16T00:40:03;3.67;;;1.10;;
8252;SDS011;61313;48.396;10.008;2023-01-16T00:42:29;5.17;;;1.70;;
8252;SDS011;61313;48.396;10.008;2023-01-16T00:44:55;4.90;;;1.40;;
8252;SDS011;61313;48.396;10.008;2023-01-16T00:47:20;7.57;;;1.87;;
8252;SDS011;61313;48.396;10.008;2023-01-16T00:49:46;6.07;;;1.40;;
8252;SDS011;61313;48.396;10.008;2023-01-16T00:52:11;5.10;;;1.73;;
8252;SDS011;61313;48.396;10.008;2023-01-16T00:54:36;2.33;;;1.30;;
8252;SDS011;61313;48.396;10.008;2023-01-16T00:57:02;4.30;;;1.70;;
8252;SDS011;61313;48.396;10.008;2023-01-16T00:59:27;7.83;;;1.70;;
8252;SDS011;61313;48.396;10.008;2023-01-16T01:01:53;3.17;;;1.70;;
8252;SDS011;61313;48.396;10.008;2023-01-16T01:04:18;7.40;;;2.30;;
8252;SDS011;61313;48.396;10.008;2023-01-16T01:06:44;2.40;;;1.17;;
8252;SDS011;61313;48.396;10.008;2023-01-16T01:09:09;4.20;;;1.33;;
8252;SDS011;61313;48.396;10.008;2023-01-16T01:11:35;4.20;;;1.73;;
8252;SDS011;61313;48.396;10.008;2023-01-16T01:14:00;2.30;;;1.27;;
8252;SDS011;61313;48.396;10.008;2023-01-16T01:16:26;4.23;;;1.60;;
8252;SDS011;61313;48.396;10.008;2023-01-16T01:18:51;5.20;;;1.30;;
8252;SDS011;61313;48.396;10.008;2023-01-16T01:21:17;5.17;;;1.43;;
8252;SDS011;61313;48.396;10.008;2023-01-16T01:23:42;2.03;;;1.40;;
8252;SDS011;61313;48.396;10.008;2023-01-16T01:26:08;1.67;;;1.33;;
8252;SDS011;61313;48.396;10.008;2023-01-16T01:28:35;1.30;;;1.20;;
8252;SDS011;61313;48.396;10.008;2023-01-16T01:31:02;3.83;;;1.50;;
8252;SDS011;61313;48.396;10.008;2023-01-16T01:33:29;2.60;;;1.23;;
8252;SDS011;61313;48.396;10.008;2023-01-16T01:35:54;2.73;;;1.20;;
8252;SDS011;61313;48.396;10.008;2023-01-16T01:38:20;2.90;;;1.40;;
8252;SDS011;61313;48.396;10.008;2023-01-16T01:40:45;1.47;;;1.37;;
8252;SDS011;61313;48.396;10.008;2023-01-16T01:43:12;2.90;;;1.20;;
8252;SDS011;61313;48.396;10.008;2023-01-16T01:45:39;1.47;;;1.17;;
8252;SDS011;61313;48.396;10.008;2023-01-16T01:50:42;4.30;;;1.70;;
8252;SDS011;61313;48.396;10.008;2023-01-16T01:53:11;4.00;;;1.33;;
8252;SDS011;61313;48.396;10.008;2023-01-16T01:55:44;1.97;;;1.60;;
8252;SDS011;61313;48.396;10.008;2023-01-16T01:58:11;5.10;;;1.90;;
8252;SDS011;61313;48.396;10.008;2023-01-16T02:00:44;2.33;;;1.60;;
8252;SDS011;61313;48.396;10.008;2023-01-16T02:03:10;1.60;;;1.50;;
8252;SDS011;61313;48.396;10.008;2023-01-16T02:05:42;3.00;;;1.60;;
8252;SDS011;61313;48.396;10.008;2023-01-16T02:08:14;1.50;;;1.07;;
8252;SDS011;61313;48.396;10.008;2023-01-16T02:10:42;2.63;;;1.70;;
8252;SDS011;61313;48.396;10.008;2023-01-16T02:13:20;4.40;;;1.73;;
8252;SDS011;61313;48.396;10.008;2023-01-16T02:15:46;2.40;;;1.53;;
8252;SDS011;61313;48.396;10.008;2023-01-16T02:18:30;12.30;;;2.23;;
8252;SDS011;61313;48.396;10.008;2023-01-16T02:36:02;4.70;;;2.00;;
8252;SDS011;61313;48.396;10.008;2023-01-16T02:41:50;4.33;;;1.63;;
8252;SDS011;61313;48.396;10.008;2023-01-16T02:44:40;4.70;;;1.33;;
8252;SDS011;61313;48.396;10.008;2023-01-16T02:47:29;2.13;;;1.30;;
8252;SDS011;61313;48.396;10.008;2023-01-16T02:50:12;4.60;;;1.70;;
8252;SDS011;61313;48.396;10.008;2023-01-16T02:56:11;6.50;;;1.57;;
8252;SDS011;61313;48.396;10.008;2023-01-16T02:58:41;5.83;;;1.60;;
8252;SDS011;61313;48.396;10.008;2023-01-16T03:01:09;3.57;;;1.60;;
8252;SDS011;61313;48.396;10.008;2023-01-16T03:06:52;1.70;;;1.23;;
8252;SDS011;61313;48.396;10.008;2023-01-16T03:09:32;1.13;;;1.03;;
8252;SDS011;61313;48.396;10.008;2023-01-16T03:12:17;2.60;;;1.50;;
8252;SDS011;61313;48.396;10.008;2023-01-16T03:24:00;2.43;;;1.60;;
8252;SDS011;61313;48.396;10.008;2023-01-16T03:26:42;2.20;;;1.37;;
8252;SDS011;61313;48.396;10.008;2023-01-16T03:29:15;1.93;;;1.30;;
8252;SDS011;61313;48.396;10.008;2023-01-16T03:36:50;2.03;;;1.00;;
8252;SDS011;61313;48.396;10.008;2023-01-16T03:39:24;1.57;;;1.10;;
8252;SDS011;61313;48.396;10.008;2023-01-16T03:41:53;3.80;;;1.30;;
8252;SDS011;61313;48.396;10.008;2023-01-16T03:44:27;2.33;;;1.30;;
8252;SDS011;61313;48.396;10.008;2023-01-16T03:46:58;6.97;;;2.17;;
8252;SDS011;61313;48.396;10.008;2023-01-16T03:49:30;2.37;;;1.23;;
8252;SDS011;61313;48.396;10.008;2023-01-16T03:52:00;3.53;;;1.40;;
8252;SDS011;61313;48.396;10.008;2023-01-16T03:57:09;3.70;;;1.50;;
8252;SDS011;61313;48.396;10.008;2023-01-16T03:59:39;1.63;;;1.37;;
8252;SDS011;61313;48.396;10.008;2023-01-16T04:04:57;4.30;;;1.70;;
8252;SDS011;61313;48.396;10.008;2023-01-16T04:07:30;4.30;;;2.97;;
8252;SDS011;61313;48.396;10.008;2023-01-16T04:10:09;3.67;;;1.73;;
8252;SDS011;61313;48.396;10.008;2023-01-16T04:12:40;1.93;;;1.47;;
8252;SDS011;61313;48.396;10.008;2023-01-16T04:15:08;3.97;;;1.60;;
8252;SDS011;61313;48.396;10.008;2023-01-16T04:17:35;2.40;;;1.57;;
8252;SDS011;61313;48.396;10.008;2023-01-16T04:20:02;5.13;;;1.97;;
8252;SDS011;61313;48.396;10.008;2023-01-16T04:22:29;4.10;;;1.70;;
8252;SDS011;61313;48.396;10.008;2023-01-16T04:24:55;2.67;;;1.43;;
8252;SDS011;61313;48.396;10.008;2023-01-16T04:27:23;2.23;;;1.60;;
8252;SDS011;61313;48.396;10.008;2023-01-16T04:29:49;2.67;;;1.80;;
8252;SDS011;61313;48.396;10.008;2023-01-16T04:32:15;7.33;;;1.70;;
8252;SDS011;61313;48.396;10.008;2023-01-16T04:34:41;6.20;;;2.30;;
8252;SDS011;61313;48.396;10.008;2023-01-16T04:37:06;2.90;;;1.37;;
8252;SDS011;61313;48.396;10.008;2023-01-16T04:39:32;2.47;;;1.47;;
8252;SDS011;61313;48.396;10.008;2023-01-16T04:41:57;2.40;;;1.70;;
8252;SDS011;61313;48.396;10.008;2023-01-16T04:44:23;2.07;;;1.40;;
8252;SDS011;61313;48.396;10.008;2023-01-16T04:46:48;3.00;;;1.50;;
8252;SDS011;61313;48.396;10.008;2023-01-16T04:49:14;4.53;;;1.80;;
8252;SDS011;61313;48.396;10.008;2023-01-16T04:51:40;3.83;;;1.70;;
8252;SDS011;61313;48.396;10.008;2023-01-16T04:54:06;4.40;;;2.57;;
8252;SDS011;61313;48.396;10.008;2023-01-16T04:56:34;10.43;;;2.50;;
8252;SDS011;61313;48.396;10.008;2023-01-16T04:59:00;5.10;;;1.57;;
8252;SDS011;61313;48.396;10.008;2023-01-16T05:01:26;8.27;;;1.40;;
8252;SDS011;61313;48.396;10.008;2023-01-16T05:03:52;4.57;;;1.80;;
8252;SDS011;61313;48.396;10.008;2023-01-16T05:06:17;4.20;;;1.80;;
8252;SDS011;61313;48.396;10.008;2023-01-16T05:08:43;6.53;;;2.53;;
8252;SDS011;61313;48.396;10.008;2023-01-16T05:11:08;2.47;;;1.87;;
8252;SDS011;61313;48.396;10.008;2023-01-16T05:13:34;2.17;;;1.83;;
8252;SDS011;61313;48.396;10.008;2023-01-16T05:16:19;1.70;;;1.53;;
8252;SDS011;61313;48.396;10.008;2023-01-16T05:18:45;2.87;;;1.90;;
8252;SDS011;61313;48.396;10.008;2023-01-16T05:21:10;3.60;;;1.60;;
8252;SDS011;61313;48.396;10.008;2023-01-16T05:23:36;2.80;;;1.63;;
8252;SDS011;61313;48.396;10.008;2023-01-16T05:26:02;1.60;;;1.50;;
8252;SDS011;61313;48.396;10.008;2023-01-16T05:28:32;3.00;;;1.80;;
8252;SDS011;61313;48.396;10.008;2023-01-16T05:30:59;4.63;;;2.37;;
8252;SDS011;61313;48.396;10.008;2023-01-16T05:33:24;3.90;;;2.33;;
8252;SDS011;61313;48.396;10.008;2023-01-16T05:35:50;4.40;;;2.00;;
8252;SDS011;61313;48.396;10.008;2023-01-16T05:38:19;5.40;;;2.60;;
8252;SDS011;61313;48.396;10.008;2023-01-16T05:40:44;2.90;;;2.27;;
8252;SDS011;61313;48.396;10.008;2023-01-16T05:43:11;7.83;;;3.00;;
8252;SDS011;61313;48.396;10.008;2023-01-16T05:45:36;4.43;;;1.93;;
8252;SDS011;61313;48.396;10.008;2023-01-16T05:48:02;3.50;;;2.80;;
8252;SDS011;61313;48.396;10.008;2023-01-16T05:50:28;5.70;;;2.40;;
8252;SDS011;61313;48.396;10.008;2023-01-16T05:52:53;7.90;;;2.43;;
8252;SDS011;61313;48.396;10.008;2023-01-16T05:55:19;5.63;;;2.60;;
8252;SDS011;61313;48.396;10.008;2023-01-16T05:57:44;5.80;;;2.77;;
8252;SDS011;61313;48.396;10.008;2023-01-16T06:00:10;7.97;;;3.07;;
8252;SDS011;61313;48.396;10.008;2023-01-16T06:02:36;3.83;;;2.33;;
8252;SDS011;61313;48.396;10.008;2023-01-16T06:05:01;6.23;;;2.30;;
8252;SDS011;61313;48.396;10.008;2023-01-16T06:07:28;3.07;;;2.13;;
8252;SDS011;61313;48.396;10.008;2023-01-16T06:09:53;4.30;;;2.43;;
8252;SDS011;61313;48.396;10.008;2023-01-16T06:12:19;7.87;;;2.57;;
8252;SDS011;61313;48.396;10.008;2023-01-16T06:14:45;4.20;;;2.93;;
8252;SDS011;61313;48.396;10.008;2023-01-16T06:17:11;4.57;;;2.40;;
8252;SDS011;61313;48.396;10.008;2023-01-16T06:19:39;2.30;;;2.10;;
8252;SDS011;61313;48.396;10.008;2023-01-16T06:22:05;2.80;;;2.50;;
8252;SDS011;61313;48.396;10.008;2023-01-16T06:24:31;3.23;;;2.30;;
8252;SDS011;61313;48.396;10.008;2023-01-16T06:26:56;13.73;;;2.80;;
8252;SDS011;61313;48.396;10.008;2023-01-16T06:29:22;4.60;;;2.37;;
8252;SDS011;61313;48.396;10.008;2023-01-16T06:31:47;3.53;;;1.93;;
8252;SDS011;61313;48.396;10.008;2023-01-16T06:34:12;2.77;;;2.30;;
8252;SDS011;61313;48.396;10.008;2023-01-16T06:36:38;3.40;;;2.60;;
8252;SDS011;61313;48.396;10.008;2023-01-16T06:39:03;13.33;;;4.07;;
8252;SDS011;61313;48.396;10.008;2023-01-16T06:41:29;20.80;;;9.20;;
8252;SDS011;61313;48.396;10.008;2023-01-16T06:43:54;14.10;;;6.10;;
8252;SDS011;61313;48.396;10.008;2023-01-16T06:46:20;8.03;;;4.07;;
8252;SDS011;61313;48.396;10.008;2023-01-16T06:48:45;7.67;;;3.63;;
8252;SDS011;61313;48.396;10.008;2023-01-16T06:51:11;7.80;;;4.20;;
8252;SDS011;61313;48.396;10.008;2023-01-16T06:53:36;7.00;;;4.70;;
8252;SDS011;61313;48.396;10.008;2023-01-16T06:56:02;20.97;;;4.57;;
8252;SDS011;61313;48.396;10.008;2023-01-16T06:58:27;14.73;;;4.20;;
8252;SDS011;61313;48.396;10.008;2023-01-16T07:00:53;8.63;;;3.73;;
8252;SDS011;61313;48.396;10.008;2023-01-16T07:03:20;6.70;;;4.20;;
8252;SDS011;61313;48.396;10.008;2023-01-16T07:05:46;7.67;;;3.80;;
8252;SDS011;61313;48.396;10.008;2023-01-16T07:08:12;7.47;;;2.90;;
8252;SDS011;61313;48.396;10.008;2023-01-16T07:10:38;7.50;;;3.90;;
8252;SDS011;61313;48.396;10.008;2023-01-16T07:13:04;5.50;;;3.33;;
8252;SDS011;61313;48.396;10.008;2023-01-16T07:15:30;4.30;;;2.80;;
8252;SDS011;61313;48.396;10.008;2023-01-16T07:18:14;3.37;;;3.03;;
8252;SDS011;61313;48.396;10.008;2023-01-16T07:20:59;3.33;;;3.03;;
8252;SDS011;61313;48.396;10.008;2023-01-16T07:23:50;4.70;;;3.03;;
8252;SDS011;61313;48.396;10.008;2023-01-16T07:26:19;7.70;;;2.90;;
8252;SDS011;61313;48.396;10.008;2023-01-16T07:28:46;7.30;;;3.17;;
8252;SDS011;61313;48.396;10.008;2023-01-16T07:31:14;9.37;;;4.03;;
8252;SDS011;61313;48.396;10.008;2023-01-16T07:33:39;13.53;;;4.03;;
8252;SDS011;61313;48.396;10.008;2023-01-16T07:36:05;5.27;;;3.23;;
8252;SDS011;61313;48.396;10.008;2023-01-16T07:38:30;4.77;;;3.30;;
8252;SDS011;61313;48.396;10.008;2023-01-16T07:40:56;8.93;;;3.60;;
8252;SDS011;61313;48.396;10.008;2023-01-16T07:43:21;5.00;;;3.20;;
8252;SDS011;61313;48.396;10.008;2023-01-16T07:45:47;5.20;;;3.03;;
8252;SDS011;61313;48.396;10.008;2023-01-16T07:48:17;7.13;;;3.40;;
8252;SDS011;61313;48.396;10.008;2023-01-16T07:50:52;5.37;;;3.40;;
8252;SDS011;61313;48.396;10.008;2023-01-16T07:53:19;4.63;;;2.57;;
8252;SDS011;61313;48.396;10.008;2023-01-16T07:55:49;4.60;;;3.00;;
8252;SDS011;61313;48.396;10.008;2023-01-16T07:58:15;8.47;;;4.53;;
8252;SDS011;61313;48.396;10.008;2023-01-16T08:00:41;4.70;;;3.13;;
8252;SDS011;61313;48.396;10.008;2023-01-16T08:03:07;5.60;;;2.57;;
8252;SDS011;61313;48.396;10.008;2023-01-16T08:05:32;5.10;;;3.00;;
8252;SDS011;61313;48.396;10.008;2023-01-16T08:07:58;6.33;;;3.20;;
8252;SDS011;61313;48.396;10.008;2023-01-16T08:10:23;6.50;;;2.73;;
8252;SDS011;61313;48.396;10.008;2023-01-16T08:12:49;4.30;;;3.03;;
8252;SDS011;61313;48.396;10.008;2023-01-16T08:15:14;7.40;;;2.67;;
8252;SDS011;61313;48.396;10.008;2023-01-16T08:17:40;43.33;;;8.00;;
8252;SDS011;61313;48.396;10.008;2023-01-16T08:20:06;5.83;;;2.30;;
8252;SDS011;61313;48.396;10.008;2023-01-16T08:22:32;40.50;;;7.90;;
8252;SDS011;61313;48.396;10.008;2023-01-16T08:24:58;4.57;;;2.93;;
8252;SDS011;61313;48.396;10.008;2023-01-16T08:27:23;13.83;;;3.33;;
8252;SDS011;61313;48.396;10.008;2023-01-16T08:29:49;7.90;;;3.00;;
8252;SDS011;61313;48.396;10.008;2023-01-16T08:32:14;2.63;;;2.00;;
8252;SDS011;61313;48.396;10.008;2023-01-16T08:34:41;78.50;;;9.87;;
8252;SDS011;61313;48.396;10.008;2023-01-16T08:37:06;55.43;;;11.00;;
8252;SDS011;61313;48.396;10.008;2023-01-16T08:39:38;39.47;;;6.03;;
8252;SDS011;61313;48.396;10.008;2023-01-16T08:42:03;5.67;;;2.17;;
8252;SDS011;61313;48.396;10.008;2023-01-16T08:44:47;3.33;;;2.20;;
8252;SDS011;61313;48.396;10.008;2023-01-16T08:47:31;23.67;;;13.33;;
8252;SDS011;61313;48.396;10.008;2023-01-16T08:50:18;16.87;;;8.67;;
8252;SDS011;61313;48.396;10.008;2023-01-16T08:53:03;9.13;;;5.57;;
8252;SDS011;61313;48.396;10.008;2023-01-16T08:55:29;6.17;;;4.47;;
8252;SDS011;61313;48.396;10.008;2023-01-16T08:57:55;6.23;;;4.90;;
8252;SDS011;61313;48.396;10.008;2023-01-16T09:00:24;5.70;;;4.30;;
8252;SDS011;61313;48.396;10.008;2023-01-16T09:02:53;9.63;;;4.80;;
8252;SDS011;61313;48.396;10.008;2023-01-16T09:05:21;7.53;;;5.20;;
8252;SDS011;61313;48.396;10.008;2023-01-16T09:07:46;9.30;;;5.17;;
8252;SDS011;61313;48.396;10.008;2023-01-16T09:10:12;8.13;;;4.20;;
8252;SDS011;61313;48.396;10.008;2023-01-16T09:12:38;6.97;;;3.87;;
8252;SDS011;61313;48.396;10.008;2023-01-16T09:15:22;7.63;;;4.00;;
8252;SDS011;61313;48.396;10.008;2023-01-16T09:17:48;4.67;;;3.33;;
8252;SDS011;61313;48.396;10.008;2023-01-16T09:20:14;4.13;;;3.60;;
8252;SDS011;61313;48.396;10.008;2023-01-16T09:22:39;7.00;;;3.80;;
8252;SDS011;61313;48.396;10.008;2023-01-16T09:25:05;6.83;;;4.10;;
8252;SDS011;61313;48.396;10.008;2023-01-16T09:27:31;5.90;;;3.67;;
8252;SDS011;61313;48.396;10.008;2023-01-16T09:29:56;4.33;;;3.60;;
8252;SDS011;61313;48.396;10.008;2023-01-16T09:32:22;6.37;;;3.30;;
8252;SDS011;61313;48.396;10.008;2023-01-16T09:34:47;6.17;;;3.30;;
8252;SDS011;61313;48.396;10.008;2023-01-16T09:37:13;10.10;;;3.90;;
8252;SDS011;61313;48.396;10.008;2023-01-16T09:39:42;6.53;;;2.87;;
8252;SDS011;61313;48.396;10.008;2023-01-16T09:44:54;10.13;;;4.40;;
8252;SDS011;61313;48.396;10.008;2023-01-16T09:47:42;17.40;;;4.00;;
8252;SDS011;61313;48.396;10.008;2023-01-16T09:50:27;3.63;;;2.50;;
8252;SDS011;61313;48.396;10.008;2023-01-16T09:53:03;3.97;;;2.40;;
8252;SDS011;61313;48.396;10.008;2023-01-16T09:55:52;3.10;;;2.37;;
8252;SDS011;61313;48.396;10.008;2023-01-16T09:58:38;6.53;;;2.93;;
8252;SDS011;61313;48.396;10.008;2023-01-16T10:01:09;2.53;;;1.70;;
8252;SDS011;61313;48.396;10.008;2023-01-16T10:03:44;1.83;;;1.33;;
8252;SDS011;61313;48.396;10.008;2023-01-16T10:06:15;5.47;;;2.17;;
8252;SDS011;61313;48.396;10.008;2023-01-16T10:24:33;14.07;;;3.73;;
8252;SDS011;61313;48.396;10.008;2023-01-16T10:30:13;19.23;;;3.70;;
8252;SDS011;61313;48.396;10.008;2023-01-16T10:32:47;3.53;;;2.20;;
8252;SDS011;61313;48.396;10.008;2023-01-16T10:35:31;2.23;;;1.50;;
8252;SDS011;61313;48.396;10.008;2023-01-16T10:38:02;2.17;;;1.50;;
8252;SDS011;61313;48.396;10.008;2023-01-16T10:40:42;4.53;;;1.63;;
8252;SDS011;61313;48.396;10.008;2023-01-16T10:43:13;4.80;;;2.00;;
8252;SDS011;61313;48.396;10.008;2023-01-16T10:46:36;8.37;;;2.43;;
8252;SDS011;61313;48.396;10.008;2023-01-16T10:49:13;3.43;;;1.63;;
8252;SDS011;61313;48.396;10.008;2023-01-16T10:51:56;5.00;;;1.60;;
8252;SDS011;61313;48.396;10.008;2023-01-16T10:54:25;34.70;;;5.47;;
8252;SDS011;61313;48.396;10.008;2023-01-16T10:56:50;28.20;;;5.10;;
8252;SDS011;61313;48.396;10.008;2023-01-16T10:59:16;11.30;;;5.30;;
8252;SDS011;61313;48.396;10.008;2023-01-16T11:01:43;27.00;;;4.07;;
8252;SDS011;61313;48.396;10.008;2023-01-16T11:04:09;16.40;;;5.93;;
8252;SDS011;61313;48.396;10.008;2023-01-16T11:06:36;17.37;;;5.20;;
8252;SDS011;61313;48.396;10.008;2023-01-16T11:09:06;74.10;;;10.20;;
8252;SDS011;61313;48.396;10.008;2023-01-16T11:11:42;30.20;;;6.20;;
8252;SDS011;61313;48.396;10.008;2023-01-16T11:14:32;8.70;;;3.63;;
8252;SDS011;61313;48.396;10.008;2023-01-16T11:20:20;11.43;;;4.10;;
8252;SDS011;61313;48.396;10.008;2023-01-16T11:22:56;17.57;;;3.10;;
8252;SDS011;61313;48.396;10.008;2023-01-16T11:25:23;8.33;;;3.33;;
8252;SDS011;61313;48.396;10.008;2023-01-16T11:27:50;6.83;;;3.87;;
8252;SDS011;61313;48.396;10.008;2023-01-16T11:30:21;11.87;;;4.07;;
8252;SDS011;61313;48.396;10.008;2023-01-16T11:32:53;6.30;;;3.23;;
8252;SDS011;61313;48.396;10.008;2023-01-16T11:35:23;12.33;;;4.40;;
8252;SDS011;61313;48.396;10.008;2023-01-16T11:37:55;7.83;;;3.60;;
8252;SDS011;61313;48.396;10.008;2023-01-16T11:40:22;8.23;;;3.43;;
8252;SDS011;61313;48.396;10.008;2023-01-16T11:42:59;8.77;;;3.20;;
8252;SDS011;61313;48.396;10.008;2023-01-16T11:45:55;7.80;;;4.20;;
8252;SDS011;61313;48.396;10.008;2023-01-16T11:48:27;6.53;;;4.20;;
8252;SDS011;61313;48.396;10.008;2023-01-16T11:50:54;10.83;;;3.50;;
8252;SDS011;61313;48.396;10.008;2023-01-16T11:53:21;5.27;;;4.00;;
8252;SDS011;61313;48.396;10.008;2023-01-16T11:56:04;14.20;;;4.17;;
8252;SDS011;61313;48.396;10.008;2023-01-16T12:04:34;26.60;;;11.80;;
8252;SDS011;61313;48.396;10.008;2023-01-16T12:07:22;15.23;;;9.40;;
8252;SDS011;61313;48.396;10.008;2023-01-16T12:10:04;7.47;;;5.50;;
8252;SDS011;61313;48.396;10.008;2023-01-16T12:12:46;6.17;;;3.70;;
8252;SDS011;61313;48.396;10.008;2023-01-16T12:22:02;10.20;;;3.70;;
8252;SDS011;61313;48.396;10.008;2023-01-16T12:25:12;17.13;;;3.93;;
8252;SDS011;61313;48.396;10.008;2023-01-16T12:28:20;14.93;;;3.80;;
8252;SDS011;61313;48.396;10.008;2023-01-16T12:36:50;14.23;;;3.67;;
8252;SDS011;61313;48.396;10.008;2023-01-16T12:42:17;16.27;;;5.10;;
8252;SDS011;61313;48.396;10.008;2023-01-16T12:50:37;49.60;;;5.77;;
8252;SDS011;61313;48.396;10.008;2023-01-16T12:56:11;11.87;;;3.27;;
8252;SDS011;61313;48.396;10.008;2023-01-16T12:58:42;7.00;;;3.33;;
8252;SDS011;61313;48.396;10.008;2023-01-16T13:01:15;5.43;;;2.70;;
8252;SDS011;61313;48.396;10.008;2023-01-16T13:06:10;13.20;;;3.47;;
8252;SDS011;61313;48.396;10.008;2023-01-16T13:08:50;4.90;;;3.17;;
8252;SDS011;61313;48.396;10.008;2023-01-16T13:11:36;6.97;;;4.20;;
8252;SDS011;61313;48.396;10.008;2023-01-16T13:14:30;10.73;;;3.90;;
8252;SDS011;61313;48.396;10.008;2023-01-16T13:19:31;5.87;;;3.70;;
8252;SDS011;61313;48.396;10.008;2023-01-16T13:22:23;6.60;;;3.37;;
8252;SDS011;61313;48.396;10.008;2023-01-16T13:25:26;5.90;;;3.20;;
8252;SDS011;61313;48.396;10.008;2023-01-16T13:27:48;10.50;;;3.00;;
8252;SDS011;61313;48.396;10.008;2023-01-16T13:30:19;6.20;;;2.60;;
8252;SDS011;61313;48.396;10.008;2023-01-16T13:32:50;4.30;;;2.93;;
8252;SDS011;61313;48.396;10.008;2023-01-16T13:35:27;5.20;;;2.90;;
8252;SDS011;61313;48.396;10.008;2023-01-16T13:38:29;9.57;;;3.30;;
8252;SDS011;61313;48.396;10.008;2023-01-16T13:46:44;9.93;;;3.20;;
8252;SDS011;61313;48.396;10.008;2023-01-16T13:49:21;11.90;;;4.10;;
8252;SDS011;61313;48.396;10.008;2023-01-16T13:51:49;21.27;;;5.07;;
8252;SDS011;61313;48.396;10.008;2023-01-16T13:54:18;9.27;;;3.90;;
8252;SDS011;61313;48.396;10.008;2023-01-16T13:56:59;22.13;;;6.43;;
8252;SDS011;61313;48.396;10.008;2023-01-16T14:02:25;9.93;;;3.57;;
8252;SDS011;61313;48.396;10.008;2023-01-16T14:10:40;12.70;;;3.00;;
8252;SDS011;61313;48.396;10.008;2023-01-16T14:18:39;6.37;;;2.73;;
8252;SDS011;61313;48.396;10.008;2023-01-16T14:21:10;6.30;;;3.43;;
8252;SDS011;61313;48.396;10.008;2023-01-16T14:23:42;5.83;;;3.77;;
8252;SDS011;61313;48.396;10.008;2023-01-16T14:34:44;17.97;;;5.17;;
8252;SDS011;61313;48.396;10.008;2023-01-16T14:37:25;4.73;;;3.27;;
8252;SDS011;61313;48.396;10.008;2023-01-16T14:39:57;2.63;;;2.43;;
8252;SDS011;61313;48.396;10.008;2023-01-16T14:45:30;16.93;;;3.53;;
8252;SDS011;61313;48.396;10.008;2023-01-16T14:53:58;6.50;;;2.33;;
8252;SDS011;61313;48.396;10.008;2023-01-16T14:56:42;19.53;;;3.23;;
8252;SDS011;61313;48.396;10.008;2023-01-16T14:59:12;4.33;;;2.10;;
8252;SDS011;61313;48.396;10.008;2023-01-16T15:01:46;2.50;;;1.70;;
8252;SDS011;61313;48.396;10.008;2023-01-16T15:04:50;6.07;;;2.00;;
8252;SDS011;61313;48.396;10.008;2023-01-16T15:07:30;7.10;;;2.17;;
8252;SDS011;61313;48.396;10.008;2023-01-16T15:10:16;21.80;;;5.07;;
8252;SDS011;61313;48.396;10.008;2023-01-16T15:12:45;6.27;;;2.33;;
8252;SDS011;61313;48.396;10.008;2023-01-16T15:17:51;3.67;;;1.73;;
8252;SDS011;61313;48.396;10.008;2023-01-16T15:20:36;21.20;;;3.50;;
8252;SDS011;61313;48.396;10.008;2023-01-16T15:23:31;5.07;;;1.77;;
8252;SDS011;61313;48.396;10.008;2023-01-16T15:31:42;7.43;;;2.00;;
8252;SDS011;61313;48.396;10.008;2023-01-16T15:36:53;10.20;;;1.77;;
8252;SDS011;61313;48.396;10.008;2023-01-16T15:44:49;16.60;;;2.90;;
8252;SDS011;61313;48.396;10.008;2023-01-16T15:50:36;78.47;;;7.07;;
8252;SDS011;61313;48.396;10.008;2023-01-16T15:53:03;8.53;;;2.23;;
8252;SDS011;61313;48.396;10.008;2023-01-16T15:55:30;54.70;;;7.40;;
8252;SDS011;61313;48.396;10.008;2023-01-16T15:58:03;6.37;;;2.03;;
8252;SDS011;61313;48.396;10.008;2023-01-16T16:03:14;15.83;;;2.70;;
8252;SDS011;61313;48.396;10.008;2023-01-16T16:05:45;13.30;;;3.27;;
8252;SDS011;61313;48.396;10.008;2023-01-16T16:08:14;8.13;;;1.60;;
8252;SDS011;61313;48.396;10.008;2023-01-16T16:10:42;10.57;;;2.50;;
8252;SDS011;61313;48.396;10.008;2023-01-16T16:13:27;11.60;;;1.90;;
8252;SDS011;61313;48.396;10.008;2023-01-16T16:15:54;12.17;;;2.30;;
8252;SDS011;61313;48.396;10.008;2023-01-16T16:18:56;2.83;;;1.50;;
8252;SDS011;61313;48.396;10.008;2023-01-16T16:24:23;3.10;;;1.70;;
8252;SDS011;61313;48.396;10.008;2023-01-16T16:26:48;1.63;;;1.43;;
8252;SDS011;61313;48.396;10.008;2023-01-16T16:29:17;6.43;;;1.63;;
8252;SDS011;61313;48.396;10.008;2023-01-16T16:31:45;7.23;;;1.60;;
8252;SDS011;61313;48.396;10.008;2023-01-16T16:34:14;3.83;;;2.00;;
8252;SDS011;61313;48.396;10.008;2023-01-16T16:36:45;5.80;;;2.13;;
8252;SDS011;61313;48.396;10.008;2023-01-16T16:41:59;1.67;;;1.33;;
8252;SDS011;61313;48.396;10.008;2023-01-16T16:44:44;2.83;;;1.87;;
8252;SDS011;61313;48.396;10.008;2023-01-16T16:47:16;3.60;;;1.80;;
8252;SDS011;61313;48.396;10.008;2023-01-16T16:49:47;2.03;;;1.73;;
8252;SDS011;61313;48.396;10.008;2023-01-16T16:54:57;1.73;;;1.47;;
8252;SDS011;61313;48.396;10.008;2023-01-16T16:57:24;2.37;;;2.00;;
8252;SDS011;61313;48.396;10.008;2023-01-16T16:59:52;2.40;;;1.53;;
8252;SDS011;61313;48.396;10.008;2023-01-16T17:02:19;3.53;;;1.40;;
8252;SDS011;61313;48.396;10.008;2023-01-16T17:04:45;2.17;;;1.47;;
8252;SDS011;61313;48.396;10.008;2023-01-16T17:07:10;2.17;;;1.40;;
8252;SDS011;61313;48.396;10.008;2023-01-16T17:09:36;1.90;;;1.50;;
8252;SDS011;61313;48.396;10.008;2023-01-16T17:12:10;5.70;;;2.00;;
8252;SDS011;61313;48.396;10.008;2023-01-16T17:14:40;3.73;;;1.63;;
8252;SDS011;61313;48.396;10.008;2023-01-16T17:17:09;4.63;;;2.30;;
8252;SDS011;61313;48.396;10.008;2023-01-16T17:19:36;8.23;;;4.30;;
8252;SDS011;61313;48.396;10.008;2023-01-16T17:22:02;7.30;;;2.17;;
8252;SDS011;61313;48.396;10.008;2023-01-16T17:24:27;4.87;;;3.60;;
8252;SDS011;61313;48.396;10.008;2023-01-16T17:26:53;2.40;;;2.20;;
8252;SDS011;61313;48.396;10.008;2023-01-16T17:29:18;1.40;;;1.30;;
8252;SDS011;61313;48.396;10.008;2023-01-16T17:31:44;2.23;;;1.67;;
8252;SDS011;61313;48.396;10.008;2023-01-16T17:34:15;3.97;;;2.50;;
8252;SDS011;61313;48.396;10.008;2023-01-16T17:36:41;3.37;;;2.27;;
8252;SDS011;61313;48.396;10.008;2023-01-16T17:39:07;2.77;;;1.57;;
8252;SDS011;61313;48.396;10.008;2023-01-16T17:41:34;3.50;;;2.03;;
8252;SDS011;61313;48.396;10.008;2023-01-16T17:44:13;2.40;;;1.40;;
8252;SDS011;61313;48.396;10.008;2023-01-16T17:46:59;3.97;;;2.40;;
8252;SDS011;61313;48.396;10.008;2023-01-16T17:49:24;3.47;;;2.10;;
8252;SDS011;61313;48.396;10.008;2023-01-16T17:51:49;1.60;;;1.20;;
8252;SDS011;61313;48.396;10.008;2023-01-16T17:54:15;1.30;;;0.97;;
8252;SDS011;61313;48.396;10.008;2023-01-16T17:57:00;4.53;;;1.27;;
8252;SDS011;61313;48.396;10.008;2023-01-16T17:59:25;2.53;;;1.30;;
8252;SDS011;61313;48.396;10.008;2023-01-16T18:01:52;1.47;;;1.10;;